Time;durP1;ratioP1;P1;durP2;ratioP2;P2;SDS_P1;SDS_P2;PMS_P1;PMS_P2;Temp;Humidity;BMP_temperature;BMP_pressure;BME280_temperature;BME280_humidity;BME280_pressure;Samples;Min_cycle;Max_cycle;Signal;HPM_P1;HPM_P2
2022/03/06 00:05:00;;;;;;;16.45;10.70;;;1.50;99.90;;;;;;6423855;22;20018;-86
2022/03/06 00:13:04;;;;;;;14.98;9.63;;;1.60;99.90;;;;;;6329886;22;20015;-85
2022/03/06 00:15:30;;;;;;;15.90;10.32;;;1.60;99.90;;;;;;6316100;22;20321;-87
2022/03/06 00:17:56;;;;;;;17.17;10.90;;;1.60;99.90;;;;;;6303949;22;19999;-92
2022/03/06 00:22:57;;;;;;;14.35;9.82;;;1.60;99.90;;;;;;6384554;22;19998;-89
2022/03/06 00:25:23;;;;;;;14.25;9.60;;;1.60;99.90;;;;;;6319495;22;20091;-89
2022/03/06 00:27:48;;;;;;;13.30;8.77;;;1.60;99.90;;;;;;6343553;22;20046;-92
2022/03/06 00:30:15;;;;;;;14.60;9.18;;;1.60;99.90;;;;;;6323123;22;20022;-95
2022/03/06 00:32:41;;;;;;;15.80;9.35;;;1.60;99.90;;;;;;6350505;22;20014;-95
2022/03/06 00:35:07;;;;;;;13.10;8.68;;;1.60;99.90;;;;;;6352895;22;20051;-95
2022/03/06 00:37:33;;;;;;;14.13;8.63;;;1.70;99.90;;;;;;6324799;22;20093;-93
2022/03/06 00:39:59;;;;;;;11.20;8.20;;;1.70;99.90;;;;;;6349516;22;20023;-92
2022/03/06 00:42:26;;;;;;;10.65;7.47;;;1.60;99.90;;;;;;6362371;22;20003;-84
2022/03/06 00:44:53;;;;;;;13.77;8.73;;;1.60;99.90;;;;;;6363993;22;20030;-95
2022/03/06 00:47:28;;;;;;;15.80;7.65;;;1.70;99.90;;;;;;6353444;22;20036;-84
2022/03/06 00:49:54;;;;;;;11.05;7.55;;;1.60;99.90;;;;;;6326218;22;20042;-94
2022/03/06 00:52:25;;;;;;;10.97;7.83;;;1.60;99.90;;;;;;6362930;22;20466;-86
2022/03/06 00:54:51;;;;;;;11.63;7.75;;;1.50;99.90;;;;;;6318258;22;20126;-87
2022/03/06 00:57:20;;;;;;;11.00;7.50;;;1.50;99.90;;;;;;6326116;22;20019;-88
2022/03/06 00:59:45;;;;;;;12.98;8.15;;;1.60;99.90;;;;;;6389655;22;20014;-87
2022/03/06 01:02:20;;;;;;;12.95;7.43;;;1.60;99.90;;;;;;6336549;22;20022;-88
2022/03/06 01:04:46;;;;;;;12.57;7.55;;;1.60;99.90;;;;;;6328784;22;20352;-86
2022/03/06 01:07:12;;;;;;;12.95;7.63;;;1.60;99.90;;;;;;6336986;22;20042;-86
2022/03/06 01:09:37;;;;;;;11.98;8.00;;;1.60;99.90;;;;;;6336847;22;20018;-92
2022/03/06 01:12:03;;;;;;;12.38;8.30;;;1.60;99.90;;;;;;6332760;22;20022;-89
2022/03/06 01:14:31;;;;;;;12.00;7.70;;;1.60;99.90;;;;;;6334997;22;20014;-86
2022/03/06 01:19:32;;;;;;;10.93;7.72;;;1.60;99.90;;;;;;6391093;22;20022;-90
2022/03/06 01:21:58;;;;;;;11.60;7.63;;;1.60;99.90;;;;;;6337051;22;20025;-95
2022/03/06 01:26:59;;;;;;;12.88;7.60;;;1.60;99.90;;;;;;6408886;22;20018;-95
2022/03/06 01:29:25;;;;;;;11.40;7.55;;;1.60;99.90;;;;;;6360650;22;20029;-91
2022/03/06 01:32:00;;;;;;;11.43;7.90;;;1.60;99.90;;;;;;6360453;22;20018;-94
2022/03/06 01:39:57;;;;;;;11.75;7.50;;;1.70;99.90;;;;;;6382955;22;20026;-89
2022/03/06 01:42:23;;;;;;;11.90;6.97;;;1.70;99.90;;;;;;6358532;22;20018;-89
2022/03/06 01:50:22;;;;;;;10.57;6.55;;;1.70;99.90;;;;;;6402144;22;20018;-90
2022/03/06 01:52:50;;;;;;;10.85;5.88;;;1.70;99.90;;;;;;6363034;22;20025;-89
2022/03/06 01:55:18;;;;;;;10.85;5.78;;;1.70;99.90;;;;;;6387257;22;20017;-90
2022/03/06 01:57:45;;;;;;;11.23;5.65;;;1.70;99.90;;;;;;6395717;22;20025;-95
2022/03/06 02:05:22;;;;;;;9.00;5.18;;;1.70;99.90;;;;;;6373404;22;20083;-87
2022/03/06 02:08:15;;;;;;;10.32;5.57;;;1.70;99.90;;;;;;6349664;22;20014;-88
2022/03/06 02:10:40;;;;;;;9.23;4.70;;;1.70;99.90;;;;;;6347621;22;20025;-95
2022/03/06 02:13:06;;;;;;;10.32;5.40;;;1.70;99.90;;;;;;6344391;22;20018;-93
2022/03/06 02:15:32;;;;;;;8.48;4.35;;;1.70;99.90;;;;;;6343362;22;20019;-91
2022/03/06 02:17:59;;;;;;;9.40;4.77;;;1.70;99.90;;;;;;6344130;22;20010;-90
2022/03/06 02:20:25;;;;;;;8.57;4.35;;;1.70;99.90;;;;;;6372213;22;20021;-89
2022/03/06 02:22:58;;;;;;;9.77;4.57;;;1.70;99.90;;;;;;6345168;22;20049;-93
2022/03/06 02:25:38;;;;;;;9.90;5.03;;;1.70;99.90;;;;;;6318013;22;20025;-95
2022/03/06 02:28:07;;;;;;;9.10;4.70;;;1.80;99.90;;;;;;6344294;22;20015;-94
2022/03/06 02:30:36;;;;;;;9.10;5.05;;;1.80;99.90;;;;;;6318074;22;20365;-94
2022/03/06 02:33:04;;;;;;;7.55;4.63;;;1.80;99.90;;;;;;6344036;22;20022;-95
2022/03/06 02:35:31;;;;;;;11.85;5.22;;;1.80;99.90;;;;;;6318161;22;20014;-93
2022/03/06 02:37:57;;;;;;;8.50;4.80;;;1.80;99.90;;;;;;6370366;22;20458;-95
2022/03/06 02:40:22;;;;;;;9.90;4.75;;;1.80;99.90;;;;;;6371460;22;20022;-86
2022/03/06 02:42:51;;;;;;;9.70;5.10;;;1.80;99.90;;;;;;6343756;22;20051;-92
2022/03/06 02:45:25;;;;;;;9.75;4.85;;;1.80;99.90;;;;;;6371470;22;20479;-95
2022/03/06 02:47:53;;;;;;;11.32;5.30;;;1.80;99.90;;;;;;6371732;22;20385;-94
2022/03/06 02:50:25;;;;;;;9.43;5.32;;;1.80;99.90;;;;;;6343552;22;20018;-90
2022/03/06 02:52:52;;;;;;;10.50;5.43;;;1.80;99.90;;;;;;6343875;22;20050;-87
2022/03/06 02:55:18;;;;;;;9.65;5.00;;;1.80;99.90;;;;;;6343747;22;20018;-92
2022/03/06 02:57:44;;;;;;;11.07;5.53;;;1.80;99.90;;;;;;6371686;22;20060;-94
2022/03/06 03:00:13;;;;;;;10.32;5.00;;;1.90;99.90;;;;;;6343704;22;20018;-91
2022/03/06 03:02:40;;;;;;;10.60;4.72;;;1.80;99.90;;;;;;6344674;22;20022;-93
2022/03/06 03:05:07;;;;;;;;;;;1.80;99.90;;;;;;6372143;22;20026;-90
2022/03/06 03:07:33;;;;;;;8.63;4.78;;;1.80;99.90;;;;;;6371068;22;19918;-93
2022/03/06 03:09:59;;;;;;;10.10;5.13;;;1.80;99.90;;;;;;6371400;22;20320;-88
2022/03/06 03:12:25;;;;;;;9.47;5.03;;;1.80;99.90;;;;;;6371231;22;20044;-91
2022/03/06 03:14:50;;;;;;;8.65;5.07;;;1.80;99.90;;;;;;6343505;22;20248;-87
2022/03/06 03:17:16;;;;;;;9.73;4.82;;;1.80;99.90;;;;;;6371164;22;20025;-92
2022/03/06 03:19:42;;;;;;;9.75;4.88;;;1.80;99.90;;;;;;6344956;22;20018;-87
2022/03/06 03:22:07;;;;;;;10.15;5.15;;;1.80;99.90;;;;;;6377139;22;20025;-86
2022/03/06 03:24:33;;;;;;;12.75;5.40;;;1.80;99.90;;;;;;6321766;22;20019;-87
2022/03/06 03:26:58;;;;;;;10.57;5.63;;;1.70;99.90;;;;;;6372050;22;20014;-96
2022/03/06 03:29:24;;;;;;;12.38;6.05;;;1.70;99.90;;;;;;6372659;22;20022;-90
2022/03/06 03:31:50;;;;;;;8.48;4.47;;;1.70;99.90;;;;;;6345509;22;20018;-89
2022/03/06 03:34:15;;;;;;;10.20;5.55;;;1.70;99.90;;;;;;6371353;22;20100;-88
2022/03/06 03:36:42;;;;;;;9.10;4.68;;;1.60;99.90;;;;;;6343998;22;20019;-93
2022/03/06 03:39:07;;;;;;;10.48;5.07;;;1.60;99.90;;;;;;6371192;22;20050;-95
2022/03/06 03:41:33;;;;;;;10.73;5.63;;;1.60;99.90;;;;;;6343806;22;20335;-96
2022/03/06 03:44:01;;;;;;;10.95;5.05;;;1.60;99.90;;;;;;6317013;22;20026;-96
2022/03/06 03:46:27;;;;;;;10.25;5.47;;;1.60;99.90;;;;;;6343526;22;20463;-96
2022/03/06 03:48:52;;;;;;;11.20;5.40;;;1.50;99.90;;;;;;6343387;22;20083;-94
2022/03/06 03:51:19;;;;;;;12.05;5.28;;;1.50;99.90;;;;;;6317569;22;20075;-91
2022/03/06 03:53:44;;;;;;;8.90;5.25;;;1.50;99.90;;;;;;6343720;22;20018;-92
2022/03/06 03:56:10;;;;;;;9.90;5.55;;;1.40;99.90;;;;;;6371684;22;20404;-88
2022/03/06 03:58:36;;;;;;;9.50;5.53;;;1.40;99.90;;;;;;6345450;22;20014;-89
2022/03/06 04:01:02;;;;;;;9.48;5.75;;;1.30;99.90;;;;;;6377185;22;20019;-89
2022/03/06 04:03:27;;;;;;;12.23;5.55;;;1.30;99.90;;;;;;6357181;22;20022;-88
2022/03/06 04:05:53;;;;;;;11.20;5.40;;;1.30;99.90;;;;;;6357426;22;20052;-87
2022/03/06 04:08:19;;;;;;;11.73;5.30;;;1.20;99.90;;;;;;6358547;22;20060;-85
2022/03/06 04:10:45;;;;;;;11.60;5.70;;;1.20;99.90;;;;;;6357828;22;20026;-93
2022/03/06 04:13:11;;;;;;;10.83;5.60;;;1.20;99.90;;;;;;6356810;22;20032;-86
2022/03/06 04:16:08;;;;;;;9.23;5.30;;;1.20;99.90;;;;;;6387788;22;20017;-85
2022/03/06 04:18:37;;;;;;;12.38;5.20;;;1.20;99.90;;;;;;6345846;22;20025;-88
2022/03/06 04:21:02;;;;;;;10.70;5.60;;;1.10;99.90;;;;;;6371777;22;20023;-92
2022/03/06 04:26:03;;;;;;;10.27;5.03;;;1.00;99.90;;;;;;6418946;22;20025;-87
2022/03/06 04:28:30;;;;;;;11.73;5.32;;;1.00;99.90;;;;;;6364405;22;20504;-94
2022/03/06 04:30:56;;;;;;;9.57;5.18;;;0.90;99.90;;;;;;6404240;22;20069;-95
2022/03/06 04:33:21;;;;;;;10.80;5.65;;;0.90;99.90;;;;;;6376510;22;20078;-95
2022/03/06 04:35:47;;;;;;;12.75;6.10;;;0.90;99.90;;;;;;6375183;22;20022;-94
2022/03/06 04:38:13;;;;;;;10.25;5.72;;;0.80;99.90;;;;;;6374603;22;20029;-94
2022/03/06 04:40:38;;;;;;;10.95;5.35;;;0.80;99.90;;;;;;6376398;22;20025;-90
2022/03/06 04:43:04;;;;;;;9.93;5.28;;;0.70;99.90;;;;;;6376634;22;20347;-94
2022/03/06 04:45:30;;;;;;;12.80;4.93;;;0.70;99.90;;;;;;6404404;22;20147;-88
2022/03/06 04:47:55;;;;;;;12.43;5.55;;;0.70;99.90;;;;;;6404487;22;20445;-93
2022/03/06 04:50:21;;;;;;;8.75;4.90;;;0.70;99.90;;;;;;6376611;22;20021;-92
2022/03/06 04:52:47;;;;;;;11.82;4.93;;;0.60;99.90;;;;;;6376841;22;20026;-95
2022/03/06 04:55:13;;;;;;;12.57;5.03;;;0.70;99.90;;;;;;6404557;22;20354;-90
2022/03/06 04:57:38;;;;;;;10.75;4.85;;;0.60;99.90;;;;;;6376239;22;20025;-91
2022/03/06 05:00:06;;;;;;;9.48;4.70;;;0.60;99.90;;;;;;6350204;22;20352;-94
2022/03/06 05:02:31;;;;;;;9.52;4.93;;;0.60;99.90;;;;;;6376491;22;20018;-93
2022/03/06 05:04:57;;;;;;;10.18;4.25;;;0.60;99.90;;;;;;6376302;22;20022;-89
2022/03/06 05:07:23;;;;;;;8.48;4.30;;;0.50;99.90;;;;;;6376441;22;20029;-89
2022/03/06 05:09:48;;;;;;;8.82;3.90;;;0.50;99.90;;;;;;6404225;22;20022;-93
2022/03/06 05:12:14;;;;;;;9.95;4.60;;;0.50;99.90;;;;;;6404312;22;20097;-88
2022/03/06 05:14:39;;;;;;;10.15;4.07;;;0.40;99.90;;;;;;6376272;22;20014;-93
2022/03/06 05:17:05;;;;;;;9.43;3.85;;;0.40;99.90;;;;;;6376302;22;20032;-92
2022/03/06 05:19:31;;;;;;;9.18;3.97;;;0.40;99.90;;;;;;6404471;22;20017;-94
2022/03/06 05:21:56;;;;;;;8.80;4.30;;;0.40;99.90;;;;;;6404159;22;20355;-94
2022/03/06 05:24:22;;;;;;;8.88;4.15;;;0.40;99.90;;;;;;6375923;22;20079;-93
2022/03/06 05:26:48;;;;;;;9.18;4.13;;;0.40;99.90;;;;;;6376445;22;20061;-92
2022/03/06 05:29:13;;;;;;;8.75;4.20;;;0.40;99.90;;;;;;6350632;22;20060;-95
2022/03/06 05:31:39;;;;;;;11.63;4.30;;;0.40;99.90;;;;;;6349871;22;20026;-88
2022/03/06 05:34:05;;;;;;;8.63;4.10;;;0.40;99.90;;;;;;6377420;22;20021;-91
2022/03/06 05:36:30;;;;;;;9.10;4.50;;;0.40;99.90;;;;;;6419063;22;20014;-87
2022/03/06 05:38:59;;;;;;;7.60;4.05;;;0.40;99.90;;;;;;6421861;22;20027;-85
2022/03/06 05:41:25;;;;;;;7.60;4.15;;;0.40;99.90;;;;;;6387839;22;20022;-89
2022/03/06 05:43:50;;;;;;;9.25;4.50;;;0.40;99.90;;;;;;6393742;22;20017;-86
2022/03/06 05:48:51;;;;;;;9.65;4.55;;;0.40;99.90;;;;;;6408141;22;20047;-93
2022/03/06 05:51:17;;;;;;;7.00;3.70;;;0.40;99.90;;;;;;6348740;22;20096;-90
2022/03/06 05:53:43;;;;;;;8.70;4.43;;;0.40;99.90;;;;;;6349668;22;20018;-92
2022/03/06 05:56:08;;;;;;;9.50;4.13;;;0.40;99.90;;;;;;6349227;22;20024;-90
2022/03/06 05:58:34;;;;;;;7.90;3.95;;;0.30;99.90;;;;;;6375685;22;20096;-89
2022/03/06 06:01:01;;;;;;;10.30;4.22;;;0.30;99.90;;;;;;6349668;22;20046;-93
2022/03/06 06:03:27;;;;;;;9.93;4.20;;;0.30;99.90;;;;;;6375780;22;20458;-90
2022/03/06 06:05:52;;;;;;;7.65;4.85;;;0.30;99.90;;;;;;6375860;22;20022;-93
2022/03/06 06:08:18;;;;;;;7.65;4.45;;;0.30;99.90;;;;;;6349102;22;20368;-93
2022/03/06 06:10:46;;;;;;;7.60;3.92;;;0.30;99.90;;;;;;6375921;22;20017;-93
2022/03/06 06:13:14;;;;;;;8.25;4.00;;;0.30;99.90;;;;;;6403969;22;20339;-91
2022/03/06 06:15:43;;;;;;;6.63;4.20;;;0.30;99.90;;;;;;6375467;22;20438;-88
2022/03/06 06:18:10;;;;;;;8.95;3.78;;;0.30;99.90;;;;;;6375650;22;20022;-87
2022/03/06 06:20:36;;;;;;;;;;;0.30;99.90;;;;;;6349715;22;20041;-90
2022/03/06 06:23:03;;;;;;;7.00;3.05;;;0.30;99.90;;;;;;6375587;22;19915;-93
2022/03/06 06:25:28;;;;;;;6.25;2.88;;;0.30;99.90;;;;;;6375748;22;20515;-92
2022/03/06 06:27:54;;;;;;;5.00;2.42;;;0.30;99.90;;;;;;6403909;22;20025;-93
2022/03/06 06:30:20;;;;;;;5.03;2.40;;;0.30;99.90;;;;;;6375723;22;20049;-90
2022/03/06 06:32:46;;;;;;;4.47;2.58;;;0.40;99.90;;;;;;6375877;22;20010;-91
2022/03/06 06:35:11;;;;;;;7.35;2.47;;;0.40;99.90;;;;;;6376112;22;20152;-89
2022/03/06 06:37:37;;;;;;;6.50;2.30;;;0.40;99.90;;;;;;6403565;22;20358;-91
2022/03/06 06:40:03;;;;;;;4.53;2.20;;;0.40;99.90;;;;;;6404042;22;20323;-94
2022/03/06 06:42:29;;;;;;;6.35;2.40;;;0.40;99.90;;;;;;6404299;22;20017;-85
2022/03/06 06:44:55;;;;;;;5.35;2.40;;;0.40;99.90;;;;;;6384874;22;20055;-90
2022/03/06 06:47:20;;;;;;;4.68;2.25;;;0.50;99.90;;;;;;6407034;22;20021;-91
2022/03/06 06:49:55;;;;;;;4.80;2.33;;;0.50;99.90;;;;;;6379710;22;20018;-89
2022/03/06 06:52:21;;;;;;;5.35;2.10;;;0.50;99.90;;;;;;6351407;22;20021;-87
2022/03/06 06:54:47;;;;;;;3.88;2.10;;;0.60;99.90;;;;;;6375215;22;20029;-90
2022/03/06 06:57:12;;;;;;;4.55;2.20;;;0.60;99.90;;;;;;6375580;22;20380;-86
2022/03/06 06:59:38;;;;;;;8.15;2.28;;;0.70;99.90;;;;;;6348992;22;20036;-89
2022/03/06 07:02:04;;;;;;;5.68;2.15;;;0.70;99.90;;;;;;6374861;22;20088;-90
2022/03/06 07:04:29;;;;;;;4.90;2.13;;;0.80;99.90;;;;;;6348850;22;20093;-91
2022/03/06 07:07:07;;;;;;;4.20;2.05;;;0.90;99.90;;;;;;6348767;22;20391;-88
2022/03/06 07:09:45;;;;;;;6.30;2.47;;;1.00;99.90;;;;;;6349359;22;20083;-91
2022/03/06 07:12:11;;;;;;;4.60;2.17;;;1.00;99.90;;;;;;6358042;22;20381;-88
2022/03/06 07:14:37;;;;;;;5.87;2.10;;;1.20;99.90;;;;;;6357326;22;20047;-92
2022/03/06 07:20:35;;;;;;;6.65;2.38;;;2.10;99.90;;;;;;6406778;22;20029;-91
2022/03/06 07:23:57;;;;;;;5.22;2.38;;;2.30;99.90;;;;;;6350745;22;20021;-93
2022/03/06 07:26:22;;;;;;;4.95;2.40;;;2.20;99.90;;;;;;6354777;22;20021;-95
2022/03/06 07:28:48;;;;;;;3.83;2.08;;;2.10;99.90;;;;;;6331452;22;20084;-88
2022/03/06 07:31:14;;;;;;;5.53;2.40;;;2.00;99.90;;;;;;6353657;22;20441;-83
2022/03/06 07:33:40;;;;;;;5.18;2.28;;;2.00;99.90;;;;;;6344831;22;20029;-91
2022/03/06 07:36:05;;;;;;;5.40;2.25;;;1.90;99.90;;;;;;6311939;22;20057;-88
2022/03/06 07:38:31;;;;;;;4.90;2.00;;;1.90;99.90;;;;;;6311734;22;20072;-84
2022/03/06 07:40:57;;;;;;;5.28;2.10;;;2.00;99.90;;;;;;6311729;22;20474;-83
2022/03/06 07:43:25;;;;;;;5.95;2.28;;;2.00;99.90;;;;;;6341385;22;20092;-85
2022/03/06 07:45:51;;;;;;;5.22;2.22;;;2.00;99.90;;;;;;6317713;22;20022;-83
2022/03/06 07:48:17;;;;;;;7.35;2.20;;;2.00;99.90;;;;;;6312362;22;20026;-90
2022/03/06 07:50:43;;;;;;;8.15;2.55;;;2.00;99.90;;;;;;6344713;22;20019;-87
2022/03/06 07:53:12;;;;;;;4.90;2.30;;;2.10;99.90;;;;;;6339126;22;20033;-93
2022/03/06 07:55:37;;;;;;;7.75;2.35;;;2.10;99.90;;;;;;6339091;22;20046;-90
2022/03/06 07:58:03;;;;;;;6.57;2.42;;;2.20;99.90;;;;;;6285695;22;20022;-84
2022/03/06 08:00:28;;;;;;;4.77;2.17;;;2.20;99.90;;;;;;6286257;22;20352;-87
2022/03/06 08:02:56;;;;;;;6.60;2.00;;;2.20;99.90;;;;;;6339796;22;20015;-83
2022/03/06 08:05:22;;;;;;;4.88;1.98;;;2.30;99.90;;;;;;6340867;22;20133;-88
2022/03/06 08:07:48;;;;;;;5.22;2.20;;;2.40;99.90;;;;;;6313735;22;20481;-83
2022/03/06 08:10:14;;;;;;;6.18;2.20;;;2.40;99.90;;;;;;6311621;22;20097;-89
2022/03/06 08:12:42;;;;;;;7.20;2.08;;;2.50;99.90;;;;;;6314071;22;20075;-89
2022/03/06 08:15:09;;;;;;;4.80;2.10;;;2.50;99.90;;;;;;6316522;22;20363;-86
2022/03/06 08:17:36;;;;;;;6.55;2.20;;;2.60;99.90;;;;;;6317674;22;20430;-95
2022/03/06 08:20:04;;;;;;;4.15;2.10;;;2.60;99.90;;;;;;6314690;22;20019;-86
2022/03/06 08:22:32;;;;;;;3.95;1.90;;;2.70;99.90;;;;;;6310844;22;20007;-90
2022/03/06 08:24:57;;;;;;;5.38;2.60;;;2.70;99.90;;;;;;6311333;22;20027;-88
2022/03/06 08:27:23;;;;;;;6.28;2.15;;;2.70;99.90;;;;;;6316506;22;20061;-89
2022/03/06 08:29:50;;;;;;;4.78;2.30;;;2.70;99.90;;;;;;6302954;22;20027;-86
2022/03/06 08:32:16;;;;;;;8.20;2.55;;;2.70;99.90;;;;;;6287558;22;20025;-89
2022/03/06 08:34:42;;;;;;;5.75;2.22;;;2.80;99.90;;;;;;6281320;22;20106;-90
2022/03/06 08:37:08;;;;;;;5.90;2.57;;;2.80;99.90;;;;;;6280548;22;20016;-89
2022/03/06 08:39:34;;;;;;;4.72;2.10;;;2.80;99.90;;;;;;6280567;22;20295;-87
2022/03/06 08:42:00;;;;;;;6.07;2.40;;;2.80;99.90;;;;;;6280566;22;20463;-90
2022/03/06 08:44:26;;;;;;;6.38;2.20;;;2.80;99.90;;;;;;6254929;22;20019;-87
2022/03/06 08:46:52;;;;;;;6.78;2.63;;;2.80;99.90;;;;;;6280765;22;20030;-87
2022/03/06 08:49:19;;;;;;;6.77;2.30;;;2.80;99.90;;;;;;6280379;22;20016;-84
2022/03/06 08:51:44;;;;;;;5.90;2.70;;;2.90;99.90;;;;;;6254737;22;20015;-88
2022/03/06 08:54:10;;;;;;;5.85;2.28;;;2.90;99.90;;;;;;6280571;22;20069;-86
2022/03/06 08:56:36;;;;;;;6.38;2.47;;;2.90;99.90;;;;;;6279822;22;20016;-92
2022/03/06 08:59:02;;;;;;;7.75;2.95;;;3.00;99.90;;;;;;6280245;22;20525;-83
2022/03/06 09:01:27;;;;;;;5.93;2.67;;;3.10;99.90;;;;;;6280709;22;20019;-85
2022/03/06 09:03:53;;;;;;;5.47;2.50;;;3.20;99.90;;;;;;6280161;22;20051;-84
2022/03/06 09:06:19;;;;;;;6.13;3.22;;;3.20;99.90;;;;;;6280075;22;20077;-91
2022/03/06 09:08:45;;;;;;;7.77;2.60;;;3.30;99.90;;;;;;6307968;22;20019;-89
2022/03/06 09:11:10;;;;;;;6.30;2.70;;;3.30;99.90;;;;;;6280539;22;20019;-85
2022/03/06 09:13:36;;;;;;;5.47;2.35;;;3.40;99.90;;;;;;6280696;22;20023;-84
2022/03/06 09:16:03;;;;;;;5.30;2.40;;;3.40;99.90;;;;;;6280299;22;20027;-85
2022/03/06 09:18:30;;;;;;;5.72;2.42;;;3.40;99.90;;;;;;6307037;22;20349;-88
2022/03/06 09:20:56;;;;;;;7.45;2.92;;;3.50;99.90;;;;;;6253362;22;20023;-84
2022/03/06 09:23:22;;;;;;;7.93;2.80;;;3.50;99.60;;;;;;6283645;22;20019;-93
2022/03/06 09:25:47;;;;;;;6.38;2.55;;;3.50;99.60;;;;;;6285522;22;20061;-87
2022/03/06 09:28:13;;;;;;;7.37;2.70;;;3.60;99.10;;;;;;6285238;22;20065;-89
2022/03/06 09:30:39;;;;;;;6.78;2.47;;;3.40;99.10;;;;;;6307016;22;20087;-87
2022/03/06 09:33:05;;;;;;;4.78;2.33;;;3.50;99.00;;;;;;6314367;22;20076;-91
2022/03/06 09:35:31;;;;;;;5.50;2.20;;;3.60;98.90;;;;;;6313401;22;20018;-93
2022/03/06 09:37:57;;;;;;;4.63;2.47;;;3.60;99.10;;;;;;6314207;22;20451;-85
2022/03/06 09:40:23;;;;;;;5.43;2.50;;;3.70;99.10;;;;;;6315558;22;20027;-87
2022/03/06 09:42:49;;;;;;;5.50;2.30;;;3.70;98.80;;;;;;6341215;22;20237;-85
2022/03/06 09:45:15;;;;;;;7.00;2.42;;;3.70;98.70;;;;;;6313345;22;20019;-90
2022/03/06 09:47:43;;;;;;;7.55;2.22;;;3.80;98.60;;;;;;6340137;22;20021;-90
2022/03/06 09:50:11;;;;;;;6.25;2.22;;;3.80;98.80;;;;;;6313410;22;20106;-93
2022/03/06 09:52:36;;;;;;;5.18;2.33;;;3.90;98.20;;;;;;6313358;22;20019;-87
2022/03/06 09:55:03;;;;;;;5.25;2.15;;;4.00;98.00;;;;;;6320288;22;20080;-88
2022/03/06 09:57:29;;;;;;;8.00;2.58;;;4.10;97.80;;;;;;6295903;22;20092;-87
2022/03/06 09:59:55;;;;;;;6.15;2.17;;;4.10;97.90;;;;;;6292421;22;20061;-87
2022/03/06 10:02:21;;;;;;;4.83;2.17;;;4.10;97.70;;;;;;6290670;22;20023;-96
2022/03/06 10:04:47;;;;;;;6.47;2.80;;;4.20;98.10;;;;;;6315182;22;20046;-89
2022/03/06 10:07:15;;;;;;;5.60;2.47;;;4.30;98.30;;;;;;6293239;22;20026;-86
2022/03/06 10:09:48;;;;;;;7.50;2.00;;;4.40;98.10;;;;;;6316910;22;20026;-85
2022/03/06 10:12:19;;;;;;;5.60;2.15;;;4.50;98.30;;;;;;6312756;22;20352;-83
2022/03/06 10:14:45;;;;;;;5.03;1.98;;;4.60;97.50;;;;;;6314148;22;20015;-89
2022/03/06 10:17:13;;;;;;;4.63;2.22;;;4.70;97.40;;;;;;6315991;22;20098;-88
2022/03/06 10:19:50;;;;;;;6.95;2.20;;;4.70;97.00;;;;;;6313568;22;20093;-83
2022/03/06 10:22:18;;;;;;;5.55;2.40;;;4.80;97.00;;;;;;6292963;22;20106;-82
2022/03/06 10:24:55;;;;;;;4.95;2.25;;;4.80;97.00;;;;;;6294246;22;20363;-85
2022/03/06 10:27:57;;;;;;;5.03;2.30;;;4.80;96.80;;;;;;6290123;22;20025;-93
2022/03/06 10:30:29;;;;;;;4.68;2.35;;;4.80;96.90;;;;;;6288526;22;20023;-94
2022/03/06 10:32:56;;;;;;;7.47;2.47;;;4.80;97.20;;;;;;6339955;22;20025;-91
2022/03/06 10:35:42;;;;;;;5.88;2.45;;;4.80;97.00;;;;;;6286434;22;20019;-92
2022/03/06 10:38:28;;;;;;;6.07;2.70;;;4.80;96.70;;;;;;6345327;22;20021;-93
2022/03/06 10:41:17;;;;;;;5.07;2.17;;;4.80;96.70;;;;;;6317667;22;20026;-94
2022/03/06 10:43:43;;;;;;;6.18;2.38;;;4.80;96.70;;;;;;6324417;22;20019;-82
2022/03/06 10:46:23;;;;;;;6.65;2.47;;;4.80;96.80;;;;;;6355214;22;20023;-82
2022/03/06 10:49:02;;;;;;;7.15;2.45;;;5.00;96.90;;;;;;6326562;22;20097;-83
2022/03/06 10:51:40;;;;;;;6.90;2.47;;;5.00;97.00;;;;;;6301598;22;20018;-84
2022/03/06 10:54:06;;;;;;;6.10;2.63;;;5.10;96.50;;;;;;6297503;22;20025;-96
2022/03/06 10:56:32;;;;;;;7.50;2.47;;;5.10;96.90;;;;;;6318541;22;20014;-93
2022/03/06 10:58:59;;;;;;;6.83;2.40;;;5.20;96.90;;;;;;6289216;22;20344;-93
2022/03/06 11:04:02;;;;;;;6.93;2.65;;;5.20;97.00;;;;;;6350793;22;20030;-92
2022/03/06 11:06:32;;;;;;;6.15;2.50;;;5.40;96.60;;;;;;6346947;22;20470;-92
2022/03/06 11:08:58;;;;;;;5.28;2.20;;;5.40;96.30;;;;;;6346318;22;20016;-91
2022/03/06 11:11:24;;;;;;;6.63;2.60;;;5.50;96.80;;;;;;6330219;22;20026;-92
2022/03/06 11:13:53;;;;;;;4.50;2.43;;;5.60;96.80;;;;;;6325037;22;20022;-95
2022/03/06 11:16:18;;;;;;;6.32;2.90;;;5.70;96.50;;;;;;6321305;22;20159;-90
2022/03/06 11:18:44;;;;;;;4.97;2.37;;;5.70;96.60;;;;;;6347796;22;20377;-93
2022/03/06 11:21:12;;;;;;;5.90;2.57;;;5.80;96.90;;;;;;6317777;22;20290;-91
2022/03/06 11:23:45;;;;;;;7.45;2.95;;;5.90;96.80;;;;;;6318224;22;20351;-96
2022/03/06 11:26:14;;;;;;;6.25;2.75;;;6.00;96.40;;;;;;6346766;22;20075;-88
2022/03/06 11:29:13;;;;;;;5.78;2.30;;;6.00;96.40;;;;;;6319147;22;20021;-87
2022/03/06 11:31:47;;;;;;;8.13;2.67;;;6.00;96.60;;;;;;6371395;22;20479;-90
2022/03/06 11:34:25;;;;;;;9.73;2.85;;;5.90;96.40;;;;;;6371600;22;20014;-91
2022/03/06 11:36:51;;;;;;;7.90;2.47;;;5.80;96.60;;;;;;6343403;22;20014;-84
2022/03/06 11:39:30;;;;;;;8.68;2.55;;;5.80;96.60;;;;;;6370865;22;20026;-83
2022/03/06 11:42:00;;;;;;;6.53;2.55;;;5.70;96.90;;;;;;6343251;22;20023;-85
2022/03/06 11:44:48;;;;;;;6.85;2.63;;;5.70;97.20;;;;;;6343005;22;20033;-87
2022/03/06 11:47:17;;;;;;;6.70;2.60;;;5.70;97.40;;;;;;6343100;22;20345;-91
2022/03/06 11:49:52;;;;;;;4.60;2.25;;;5.60;97.30;;;;;;6343109;22;20026;-86
2022/03/06 11:52:25;;;;;;;5.20;2.42;;;5.70;97.50;;;;;;6343313;22;20056;-89
2022/03/06 11:54:51;;;;;;;6.30;3.10;;;5.60;97.50;;;;;;6371023;22;20098;-87
2022/03/06 11:57:43;;;;;;;6.17;2.63;;;5.60;97.90;;;;;;6343030;22;20014;-90
2022/03/06 12:00:17;;;;;;;6.70;2.47;;;5.50;98.20;;;;;;6337531;22;20045;-90
2022/03/06 12:02:54;;;;;;;6.80;2.88;;;5.60;97.90;;;;;;6343038;22;20131;-88
2022/03/06 12:05:21;;;;;;;6.68;2.83;;;5.50;98.30;;;;;;6316958;22;20058;-88
2022/03/06 12:07:49;;;;;;;5.70;2.60;;;5.50;98.60;;;;;;6342911;22;20018;-91
2022/03/06 12:10:16;;;;;;;5.53;2.80;;;5.40;98.80;;;;;;6370441;22;20021;-91
2022/03/06 12:12:42;;;;;;;6.50;2.90;;;5.40;99.10;;;;;;6344422;22;20021;-88
2022/03/06 12:15:16;;;;;;;8.87;2.50;;;5.50;99.30;;;;;;6344314;22;20023;-91
2022/03/06 12:17:43;;;;;;;5.13;2.55;;;5.50;99.30;;;;;;6371156;22;20026;-87
2022/03/06 12:20:09;;;;;;;7.05;2.60;;;5.50;99.30;;;;;;6343002;22;20020;-90
2022/03/06 12:22:43;;;;;;;5.00;2.17;;;5.50;99.50;;;;;;6343198;22;20050;-90
2022/03/06 12:25:11;;;;;;;4.95;2.40;;;5.60;99.60;;;;;;6342866;22;20019;-83
2022/03/06 12:28:03;;;;;;;7.82;2.58;;;5.60;99.70;;;;;;6339610;22;20025;-89
2022/03/06 12:30:30;;;;;;;6.50;2.50;;;5.60;99.90;;;;;;6284800;22;20038;-90
2022/03/06 12:32:56;;;;;;;6.45;2.60;;;5.70;99.90;;;;;;6343206;22;20351;-93
2022/03/06 12:35:22;;;;;;;6.32;2.53;;;5.70;99.90;;;;;;6343131;22;20026;-86
2022/03/06 12:37:59;;;;;;;5.87;2.27;;;5.70;99.80;;;;;;6371229;22;20059;-89
2022/03/06 12:40:28;;;;;;;4.95;2.50;;;5.70;99.90;;;;;;6343070;22;20030;-90
2022/03/06 12:43:06;;;;;;;6.57;2.35;;;5.70;99.90;;;;;;6370550;22;20010;-89
2022/03/06 12:45:35;;;;;;;6.15;2.55;;;5.80;99.90;;;;;;6342351;22;20019;-88
2022/03/06 12:48:01;;;;;;;7.97;2.50;;;5.80;99.90;;;;;;6369115;22;20022;-88
2022/03/06 12:50:27;;;;;;;6.93;2.38;;;5.80;99.90;;;;;;6341638;22;20520;-84
2022/03/06 12:52:55;;;;;;;6.10;2.50;;;5.80;99.90;;;;;;6342353;22;20031;-90
2022/03/06 12:55:22;;;;;;;5.88;2.67;;;5.80;99.90;;;;;;6341946;22;20022;-85
2022/03/06 12:57:55;;;;;;;6.15;2.08;;;5.90;99.90;;;;;;6369956;22;20048;-90
2022/03/06 13:00:27;;;;;;;6.93;2.50;;;5.90;99.90;;;;;;6370878;22;20014;-88
2022/03/06 13:02:55;;;;;;;5.55;2.45;;;5.90;99.90;;;;;;6344343;22;20022;-89
2022/03/06 13:05:23;;;;;;;7.78;2.67;;;5.90;99.90;;;;;;6344523;22;20060;-86
2022/03/06 13:07:50;;;;;;;6.90;2.28;;;5.80;99.90;;;;;;6372098;22;20520;-94
2022/03/06 13:10:18;;;;;;;5.78;2.42;;;5.90;99.90;;;;;;6344632;22;20026;-91
2022/03/06 13:12:49;;;;;;;7.07;2.58;;;5.90;99.90;;;;;;6370989;22;20075;-88
2022/03/06 13:15:15;;;;;;;5.45;2.08;;;5.90;99.90;;;;;;6341602;22;20018;-85
2022/03/06 13:17:42;;;;;;;6.53;2.50;;;6.00;99.90;;;;;;6342562;22;20052;-82
2022/03/06 13:20:10;;;;;;;5.53;1.98;;;6.00;99.90;;;;;;6343697;22;20498;-85
2022/03/06 13:22:36;;;;;;;6.78;2.70;;;6.00;99.90;;;;;;6344658;22;20037;-84
2022/03/06 13:25:04;;;;;;;6.63;2.57;;;6.00;99.90;;;;;;6342818;22;20097;-86
2022/03/06 13:27:41;;;;;;;6.30;2.70;;;6.00;99.90;;;;;;6369233;22;20031;-82
2022/03/06 13:30:14;;;;;;;4.55;2.25;;;6.10;99.90;;;;;;6342401;22;20378;-85
2022/03/06 13:32:46;;;;;;;5.20;2.13;;;6.00;99.90;;;;;;6371426;22;20097;-82
2022/03/06 13:35:28;;;;;;;5.72;2.20;;;6.10;99.90;;;;;;6343905;22;20033;-83
2022/03/06 13:38:00;;;;;;;7.97;2.65;;;6.10;99.90;;;;;;6371428;22;20050;-83
2022/03/06 13:40:31;;;;;;;7.38;2.67;;;6.20;99.90;;;;;;6343192;22;20018;-83
2022/03/06 13:42:57;;;;;;;7.95;2.40;;;6.20;99.90;;;;;;6343298;22;20021;-84
2022/03/06 13:45:24;;;;;;;8.43;2.50;;;6.30;99.90;;;;;;6343172;22;20025;-84